sensor_id;sensor_type;location;lat;lon;timestamp;P1;durP1;ratioP1;P2;durP2;ratioP2
5452;SDS011;2749;53.576;9.822;2022-12-18T00:02:11;11.47;;;8.47;;
5452;SDS011;2749;53.576;9.822;2022-12-18T00:04:37;11.63;;;7.65;;
5452;SDS011;2749;53.576;9.822;2022-12-18T00:07:03;9.70;;;7.10;;
5452;SDS011;2749;53.576;9.822;2022-12-18T00:09:29;10.75;;;8.10;;
5452;SDS011;2749;53.576;9.822;2022-12-18T00:11:55;7.67;;;6.67;;
5452;SDS011;2749;53.576;9.822;2022-12-18T00:14:21;12.03;;;7.83;;
5452;SDS011;2749;53.576;9.822;2022-12-18T00:16:47;12.87;;;9.43;;
5452;SDS011;2749;53.576;9.822;2022-12-18T00:19:13;14.07;;;10.17;;
5452;SDS011;2749;53.576;9.822;2022-12-18T00:21:40;12.35;;;7.95;;
5452;SDS011;2749;53.576;9.822;2022-12-18T00:24:06;14.00;;;7.57;;
5452;SDS011;2749;53.576;9.822;2022-12-18T00:26:33;11.07;;;8.10;;
5452;SDS011;2749;53.576;9.822;2022-12-18T00:29:01;14.63;;;9.17;;
5452;SDS011;2749;53.576;9.822;2022-12-18T00:31:27;13.75;;;8.60;;
5452;SDS011;2749;53.576;9.822;2022-12-18T00:33:54;13.53;;;6.90;;
5452;SDS011;2749;53.576;9.822;2022-12-18T00:36:21;10.77;;;7.73;;
5452;SDS011;2749;53.576;9.822;2022-12-18T00:38:48;11.63;;;8.10;;
5452;SDS011;2749;53.576;9.822;2022-12-18T00:41:14;12.73;;;7.40;;
5452;SDS011;2749;53.576;9.822;2022-12-18T00:44:04;9.52;;;6.82;;
5452;SDS011;2749;53.576;9.822;2022-12-18T00:46:30;10.10;;;8.37;;
5452;SDS011;2749;53.576;9.822;2022-12-18T00:48:57;13.45;;;7.80;;
5452;SDS011;2749;53.576;9.822;2022-12-18T00:51:23;11.67;;;7.30;;
5452;SDS011;2749;53.576;9.822;2022-12-18T00:53:49;10.43;;;8.65;;
5452;SDS011;2749;53.576;9.822;2022-12-18T00:56:15;8.90;;;6.47;;
5452;SDS011;2749;53.576;9.822;2022-12-18T00:58:41;17.73;;;8.67;;
5452;SDS011;2749;53.576;9.822;2022-12-18T01:01:07;11.77;;;7.10;;
5452;SDS011;2749;53.576;9.822;2022-12-18T01:03:33;9.95;;;7.82;;
5452;SDS011;2749;53.576;9.822;2022-12-18T01:05:59;12.13;;;8.50;;
5452;SDS011;2749;53.576;9.822;2022-12-18T01:08:30;8.82;;;7.43;;
5452;SDS011;2749;53.576;9.822;2022-12-18T01:10:56;9.03;;;6.73;;
5452;SDS011;2749;53.576;9.822;2022-12-18T01:13:22;9.10;;;7.07;;
5452;SDS011;2749;53.576;9.822;2022-12-18T01:15:51;12.53;;;7.20;;
5452;SDS011;2749;53.576;9.822;2022-12-18T01:18:17;12.33;;;7.30;;
5452;SDS011;2749;53.576;9.822;2022-12-18T01:20:43;10.00;;;7.27;;
5452;SDS011;2749;53.576;9.822;2022-12-18T01:23:09;11.32;;;6.88;;
5452;SDS011;2749;53.576;9.822;2022-12-18T01:25:35;9.20;;;7.13;;
5452;SDS011;2749;53.576;9.822;2022-12-18T01:28:02;8.32;;;6.07;;
5452;SDS011;2749;53.576;9.822;2022-12-18T01:30:28;12.43;;;7.70;;
5452;SDS011;2749;53.576;9.822;2022-12-18T01:32:54;11.27;;;7.03;;
5452;SDS011;2749;53.576;9.822;2022-12-18T01:35:20;12.30;;;6.90;;
5452;SDS011;2749;53.576;9.822;2022-12-18T01:37:46;12.37;;;7.17;;
5452;SDS011;2749;53.576;9.822;2022-12-18T01:40:11;7.83;;;6.83;;
5452;SDS011;2749;53.576;9.822;2022-12-18T01:42:37;10.43;;;7.40;;
5452;SDS011;2749;53.576;9.822;2022-12-18T01:47:39;12.77;;;7.93;;
5452;SDS011;2749;53.576;9.822;2022-12-18T01:50:16;9.75;;;7.18;;
5452;SDS011;2749;53.576;9.822;2022-12-18T01:52:43;6.25;;;5.45;;
5452;SDS011;2749;53.576;9.822;2022-12-18T01:55:10;7.97;;;6.93;;
5452;SDS011;2749;53.576;9.822;2022-12-18T01:57:37;13.77;;;7.90;;
5452;SDS011;2749;53.576;9.822;2022-12-18T02:00:07;8.13;;;6.32;;
5452;SDS011;2749;53.576;9.822;2022-12-18T02:02:34;10.50;;;7.68;;
5452;SDS011;2749;53.576;9.822;2022-12-18T02:05:00;12.15;;;7.43;;
5452;SDS011;2749;53.576;9.822;2022-12-18T02:07:32;9.52;;;7.85;;
5452;SDS011;2749;53.576;9.822;2022-12-18T02:10:13;10.35;;;6.55;;
5452;SDS011;2749;53.576;9.822;2022-12-18T02:12:43;7.60;;;6.15;;
5452;SDS011;2749;53.576;9.822;2022-12-18T02:15:49;10.20;;;6.03;;
5452;SDS011;2749;53.576;9.822;2022-12-18T02:18:05;8.98;;;6.05;;
5452;SDS011;2749;53.576;9.822;2022-12-18T02:20:38;7.82;;;5.75;;
5452;SDS011;2749;53.576;9.822;2022-12-18T02:23:11;9.40;;;7.18;;
5452;SDS011;2749;53.576;9.822;2022-12-18T02:28:24;8.63;;;7.38;;
5452;SDS011;2749;53.576;9.822;2022-12-18T02:30:51;10.50;;;6.38;;
5452;SDS011;2749;53.576;9.822;2022-12-18T02:33:19;9.32;;;7.75;;
5452;SDS011;2749;53.576;9.822;2022-12-18T02:35:46;10.80;;;7.00;;
5452;SDS011;2749;53.576;9.822;2022-12-18T02:38:13;8.00;;;6.10;;
5452;SDS011;2749;53.576;9.822;2022-12-18T02:40:40;12.57;;;6.95;;
5452;SDS011;2749;53.576;9.822;2022-12-18T02:43:08;7.15;;;5.95;;
5452;SDS011;2749;53.576;9.822;2022-12-18T02:45:34;12.75;;;8.50;;
5452;SDS011;2749;53.576;9.822;2022-12-18T02:48:00;15.70;;;9.10;;
5452;SDS011;2749;53.576;9.822;2022-12-18T02:50:30;10.80;;;8.43;;
5452;SDS011;2749;53.576;9.822;2022-12-18T02:55:36;11.95;;;8.45;;
5452;SDS011;2749;53.576;9.822;2022-12-18T02:58:06;16.88;;;9.93;;
5452;SDS011;2749;53.576;9.822;2022-12-18T03:03:05;12.53;;;7.40;;
5452;SDS011;2749;53.576;9.822;2022-12-18T03:05:34;12.20;;;8.85;;
5452;SDS011;2749;53.576;9.822;2022-12-18T03:08:06;9.20;;;7.88;;
5452;SDS011;2749;53.576;9.822;2022-12-18T03:10:35;11.20;;;7.88;;
5452;SDS011;2749;53.576;9.822;2022-12-18T03:13:05;14.95;;;8.10;;
5452;SDS011;2749;53.576;9.822;2022-12-18T03:15:33;13.60;;;8.65;;
5452;SDS011;2749;53.576;9.822;2022-12-18T03:18:04;11.48;;;7.40;;
5452;SDS011;2749;53.576;9.822;2022-12-18T03:20:31;13.60;;;9.10;;
5452;SDS011;2749;53.576;9.822;2022-12-18T03:23:02;9.00;;;7.90;;
5452;SDS011;2749;53.576;9.822;2022-12-18T03:25:29;13.68;;;7.20;;
5452;SDS011;2749;53.576;9.822;2022-12-18T03:27:57;11.65;;;7.60;;
5452;SDS011;2749;53.576;9.822;2022-12-18T03:30:24;13.85;;;7.75;;
5452;SDS011;2749;53.576;9.822;2022-12-18T03:32:53;10.18;;;8.15;;
5452;SDS011;2749;53.576;9.822;2022-12-18T03:35:25;13.23;;;8.65;;
5452;SDS011;2749;53.576;9.822;2022-12-18T03:37:52;9.45;;;7.88;;
5452;SDS011;2749;53.576;9.822;2022-12-18T03:40:18;11.30;;;8.13;;
5452;SDS011;2749;53.576;9.822;2022-12-18T03:42:49;11.05;;;8.32;;
5452;SDS011;2749;53.576;9.822;2022-12-18T03:45:22;13.60;;;7.97;;
5452;SDS011;2749;53.576;9.822;2022-12-18T03:50:24;12.40;;;8.27;;
5452;SDS011;2749;53.576;9.822;2022-12-18T03:52:54;11.15;;;7.25;;
5452;SDS011;2749;53.576;9.822;2022-12-18T03:55:23;10.40;;;9.15;;
5452;SDS011;2749;53.576;9.822;2022-12-18T03:57:51;10.10;;;6.95;;
5452;SDS011;2749;53.576;9.822;2022-12-18T04:00:18;7.45;;;6.53;;
5452;SDS011;2749;53.576;9.822;2022-12-18T04:02:49;13.52;;;7.75;;
5452;SDS011;2749;53.576;9.822;2022-12-18T04:05:16;9.98;;;7.75;;
5452;SDS011;2749;53.576;9.822;2022-12-18T04:07:42;12.52;;;7.68;;
5452;SDS011;2749;53.576;9.822;2022-12-18T04:10:09;10.93;;;7.38;;
5452;SDS011;2749;53.576;9.822;2022-12-18T04:12:36;13.88;;;7.40;;
5452;SDS011;2749;53.576;9.822;2022-12-18T04:15:03;9.68;;;7.32;;
5452;SDS011;2749;53.576;9.822;2022-12-18T04:17:29;10.35;;;7.57;;
5452;SDS011;2749;53.576;9.822;2022-12-18T04:19:55;10.97;;;7.77;;
5452;SDS011;2749;53.576;9.822;2022-12-18T04:22:21;12.90;;;6.70;;
5452;SDS011;2749;53.576;9.822;2022-12-18T04:24:46;12.20;;;9.23;;
5452;SDS011;2749;53.576;9.822;2022-12-18T04:27:12;10.47;;;6.90;;
5452;SDS011;2749;53.576;9.822;2022-12-18T04:29:39;17.25;;;7.93;;
5452;SDS011;2749;53.576;9.822;2022-12-18T04:32:05;15.95;;;7.93;;
5452;SDS011;2749;53.576;9.822;2022-12-18T04:34:31;12.25;;;7.57;;
5452;SDS011;2749;53.576;9.822;2022-12-18T04:36:56;11.13;;;7.37;;
5452;SDS011;2749;53.576;9.822;2022-12-18T04:39:22;14.90;;;9.47;;
5452;SDS011;2749;53.576;9.822;2022-12-18T04:41:48;10.87;;;7.13;;
5452;SDS011;2749;53.576;9.822;2022-12-18T04:44:14;9.40;;;7.50;;
5452;SDS011;2749;53.576;9.822;2022-12-18T04:46:40;8.73;;;6.80;;
5452;SDS011;2749;53.576;9.822;2022-12-18T04:49:06;9.77;;;7.90;;
5452;SDS011;2749;53.576;9.822;2022-12-18T04:51:32;17.05;;;10.38;;
5452;SDS011;2749;53.576;9.822;2022-12-18T04:53:58;14.10;;;8.27;;
5452;SDS011;2749;53.576;9.822;2022-12-18T04:56:24;9.63;;;8.63;;
5452;SDS011;2749;53.576;9.822;2022-12-18T04:58:50;10.37;;;7.00;;
5452;SDS011;2749;53.576;9.822;2022-12-18T05:01:16;15.67;;;9.60;;
5452;SDS011;2749;53.576;9.822;2022-12-18T05:03:42;13.50;;;8.73;;
5452;SDS011;2749;53.576;9.822;2022-12-18T05:06:09;10.57;;;6.90;;
5452;SDS011;2749;53.576;9.822;2022-12-18T05:08:35;12.07;;;7.57;;
5452;SDS011;2749;53.576;9.822;2022-12-18T05:11:05;12.30;;;7.82;;
5452;SDS011;2749;53.576;9.822;2022-12-18T05:13:32;18.70;;;8.63;;
5452;SDS011;2749;53.576;9.822;2022-12-18T05:15:58;13.15;;;8.07;;
5452;SDS011;2749;53.576;9.822;2022-12-18T05:18:24;13.43;;;10.43;;
5452;SDS011;2749;53.576;9.822;2022-12-18T05:20:51;10.18;;;7.03;;
5452;SDS011;2749;53.576;9.822;2022-12-18T05:23:17;13.20;;;8.95;;
5452;SDS011;2749;53.576;9.822;2022-12-18T05:25:46;9.97;;;7.03;;
5452;SDS011;2749;53.576;9.822;2022-12-18T05:28:14;11.07;;;7.63;;
5452;SDS011;2749;53.576;9.822;2022-12-18T05:30:42;13.30;;;7.70;;
5452;SDS011;2749;53.576;9.822;2022-12-18T05:33:08;8.45;;;7.60;;
5452;SDS011;2749;53.576;9.822;2022-12-18T05:35:34;10.13;;;8.10;;
5452;SDS011;2749;53.576;9.822;2022-12-18T05:38:00;11.93;;;7.80;;
5452;SDS011;2749;53.576;9.822;2022-12-18T05:40:26;12.13;;;7.70;;
5452;SDS011;2749;53.576;9.822;2022-12-18T05:42:52;15.60;;;8.33;;
5452;SDS011;2749;53.576;9.822;2022-12-18T05:45:18;12.73;;;8.43;;
5452;SDS011;2749;53.576;9.822;2022-12-18T05:47:45;8.13;;;6.82;;
5452;SDS011;2749;53.576;9.822;2022-12-18T05:50:11;11.17;;;7.87;;
5452;SDS011;2749;53.576;9.822;2022-12-18T05:52:37;12.63;;;8.20;;
5452;SDS011;2749;53.576;9.822;2022-12-18T05:55:03;12.35;;;7.47;;
5452;SDS011;2749;53.576;9.822;2022-12-18T05:57:29;11.88;;;7.72;;
5452;SDS011;2749;53.576;9.822;2022-12-18T05:59:55;9.48;;;6.50;;
5452;SDS011;2749;53.576;9.822;2022-12-18T06:02:21;10.63;;;7.63;;
5452;SDS011;2749;53.576;9.822;2022-12-18T06:04:47;7.40;;;5.87;;
5452;SDS011;2749;53.576;9.822;2022-12-18T06:07:13;9.10;;;7.77;;
5452;SDS011;2749;53.576;9.822;2022-12-18T06:09:39;12.47;;;6.40;;
5452;SDS011;2749;53.576;9.822;2022-12-18T06:12:05;11.97;;;7.83;;
5452;SDS011;2749;53.576;9.822;2022-12-18T06:14:31;7.88;;;6.32;;
5452;SDS011;2749;53.576;9.822;2022-12-18T06:16:57;11.30;;;6.47;;
5452;SDS011;2749;53.576;9.822;2022-12-18T06:19:23;12.37;;;6.43;;
5452;SDS011;2749;53.576;9.822;2022-12-18T06:21:49;7.43;;;6.67;;
5452;SDS011;2749;53.576;9.822;2022-12-18T06:24:16;11.40;;;6.28;;
5452;SDS011;2749;53.576;9.822;2022-12-18T06:26:42;13.30;;;7.00;;
5452;SDS011;2749;53.576;9.822;2022-12-18T06:29:08;9.65;;;7.03;;
5452;SDS011;2749;53.576;9.822;2022-12-18T06:31:34;9.43;;;6.90;;
5452;SDS011;2749;53.576;9.822;2022-12-18T06:34:03;13.63;;;8.03;;
5452;SDS011;2749;53.576;9.822;2022-12-18T06:36:29;8.25;;;7.18;;
5452;SDS011;2749;53.576;9.822;2022-12-18T06:38:56;11.60;;;7.17;;
5452;SDS011;2749;53.576;9.822;2022-12-18T06:41:22;12.55;;;7.38;;
5452;SDS011;2749;53.576;9.822;2022-12-18T06:43:48;11.27;;;8.50;;
5452;SDS011;2749;53.576;9.822;2022-12-18T06:46:14;8.60;;;6.75;;
5452;SDS011;2749;53.576;9.822;2022-12-18T06:48:40;12.70;;;7.50;;
5452;SDS011;2749;53.576;9.822;2022-12-18T06:51:06;11.67;;;6.80;;
5452;SDS011;2749;53.576;9.822;2022-12-18T06:53:32;7.47;;;6.30;;
5452;SDS011;2749;53.576;9.822;2022-12-18T06:58:27;13.60;;;7.63;;
5452;SDS011;2749;53.576;9.822;2022-12-18T07:00:53;17.55;;;8.18;;
5452;SDS011;2749;53.576;9.822;2022-12-18T07:03:19;11.50;;;8.17;;
5452;SDS011;2749;53.576;9.822;2022-12-18T07:05:45;12.70;;;9.50;;
5452;SDS011;2749;53.576;9.822;2022-12-18T07:08:11;10.60;;;7.57;;
5452;SDS011;2749;53.576;9.822;2022-12-18T07:10:41;10.97;;;7.77;;
5452;SDS011;2749;53.576;9.822;2022-12-18T07:13:07;13.43;;;8.35;;
5452;SDS011;2749;53.576;9.822;2022-12-18T07:15:33;15.40;;;8.07;;
5452;SDS011;2749;53.576;9.822;2022-12-18T07:17:59;11.80;;;6.67;;
5452;SDS011;2749;53.576;9.822;2022-12-18T07:20:25;12.87;;;6.77;;
5452;SDS011;2749;53.576;9.822;2022-12-18T07:22:51;9.00;;;7.67;;
5452;SDS011;2749;53.576;9.822;2022-12-18T07:25:17;8.57;;;7.67;;
5452;SDS011;2749;53.576;9.822;2022-12-18T07:27:43;14.50;;;8.27;;
5452;SDS011;2749;53.576;9.822;2022-12-18T07:30:09;10.10;;;7.00;;
5452;SDS011;2749;53.576;9.822;2022-12-18T07:32:35;12.75;;;8.02;;
5452;SDS011;2749;53.576;9.822;2022-12-18T07:35:01;11.23;;;7.70;;
5452;SDS011;2749;53.576;9.822;2022-12-18T07:37:27;13.57;;;7.00;;
5452;SDS011;2749;53.576;9.822;2022-12-18T07:39:53;14.47;;;7.40;;
5452;SDS011;2749;53.576;9.822;2022-12-18T07:42:19;8.50;;;6.43;;
5452;SDS011;2749;53.576;9.822;2022-12-18T07:44:57;14.23;;;8.00;;
5452;SDS011;2749;53.576;9.822;2022-12-18T07:47:23;10.38;;;6.82;;
5452;SDS011;2749;53.576;9.822;2022-12-18T07:49:49;8.30;;;6.77;;
5452;SDS011;2749;53.576;9.822;2022-12-18T07:52:15;9.87;;;7.37;;
5452;SDS011;2749;53.576;9.822;2022-12-18T07:54:41;13.00;;;7.50;;
5452;SDS011;2749;53.576;9.822;2022-12-18T07:57:07;15.77;;;8.27;;
5452;SDS011;2749;53.576;9.822;2022-12-18T07:59:33;11.05;;;7.80;;
5452;SDS011;2749;53.576;9.822;2022-12-18T08:01:59;10.65;;;8.35;;
5452;SDS011;2749;53.576;9.822;2022-12-18T08:04:25;10.27;;;7.30;;
5452;SDS011;2749;53.576;9.822;2022-12-18T08:06:51;17.80;;;7.90;;
5452;SDS011;2749;53.576;9.822;2022-12-18T08:09:17;8.50;;;7.28;;
5452;SDS011;2749;53.576;9.822;2022-12-18T08:11:43;14.87;;;9.47;;
5452;SDS011;2749;53.576;9.822;2022-12-18T08:14:09;8.65;;;6.80;;
5452;SDS011;2749;53.576;9.822;2022-12-18T08:16:35;14.30;;;7.40;;
5452;SDS011;2749;53.576;9.822;2022-12-18T08:19:02;11.63;;;8.20;;
5452;SDS011;2749;53.576;9.822;2022-12-18T08:21:29;10.60;;;6.40;;
5452;SDS011;2749;53.576;9.822;2022-12-18T08:23:56;11.20;;;7.70;;
5452;SDS011;2749;53.576;9.822;2022-12-18T08:26:23;10.52;;;9.40;;
5452;SDS011;2749;53.576;9.822;2022-12-18T08:28:50;11.90;;;8.00;;
5452;SDS011;2749;53.576;9.822;2022-12-18T08:31:16;10.60;;;7.38;;
5452;SDS011;2749;53.576;9.822;2022-12-18T08:33:42;12.27;;;9.45;;
5452;SDS011;2749;53.576;9.822;2022-12-18T08:36:08;9.85;;;8.23;;
5452;SDS011;2749;53.576;9.822;2022-12-18T08:38:35;13.18;;;9.57;;
5452;SDS011;2749;53.576;9.822;2022-12-18T08:41:02;13.60;;;10.17;;
5452;SDS011;2749;53.576;9.822;2022-12-18T08:43:28;14.98;;;7.68;;
5452;SDS011;2749;53.576;9.822;2022-12-18T08:46:16;16.63;;;9.13;;
5452;SDS011;2749;53.576;9.822;2022-12-18T08:48:42;10.93;;;8.23;;
5452;SDS011;2749;53.576;9.822;2022-12-18T08:51:08;9.55;;;7.43;;
5452;SDS011;2749;53.576;9.822;2022-12-18T08:53:35;19.38;;;9.35;;
5452;SDS011;2749;53.576;9.822;2022-12-18T08:56:01;11.73;;;9.15;;
5452;SDS011;2749;53.576;9.822;2022-12-18T08:58:27;11.63;;;8.95;;
5452;SDS011;2749;53.576;9.822;2022-12-18T09:00:53;14.40;;;7.97;;
5452;SDS011;2749;53.576;9.822;2022-12-18T09:03:19;14.70;;;8.97;;
5452;SDS011;2749;53.576;9.822;2022-12-18T09:05:47;18.05;;;8.48;;
5452;SDS011;2749;53.576;9.822;2022-12-18T09:08:13;13.48;;;9.55;;
5452;SDS011;2749;53.576;9.822;2022-12-18T09:10:42;11.37;;;8.10;;
5452;SDS011;2749;53.576;9.822;2022-12-18T09:13:09;13.35;;;8.85;;
5452;SDS011;2749;53.576;9.822;2022-12-18T09:15:40;11.77;;;8.93;;
5452;SDS011;2749;53.576;9.822;2022-12-18T09:18:06;10.40;;;8.07;;
5452;SDS011;2749;53.576;9.822;2022-12-18T09:20:32;16.30;;;9.00;;
5452;SDS011;2749;53.576;9.822;2022-12-18T09:22:58;11.20;;;8.97;;
5452;SDS011;2749;53.576;9.822;2022-12-18T09:25:24;12.87;;;7.67;;
5452;SDS011;2749;53.576;9.822;2022-12-18T09:27:50;15.80;;;9.77;;
5452;SDS011;2749;53.576;9.822;2022-12-18T09:30:16;10.13;;;8.97;;
5452;SDS011;2749;53.576;9.822;2022-12-18T09:32:42;12.97;;;9.53;;
5452;SDS011;2749;53.576;9.822;2022-12-18T09:35:08;9.70;;;8.57;;
5452;SDS011;2749;53.576;9.822;2022-12-18T09:37:34;11.00;;;8.47;;
5452;SDS011;2749;53.576;9.822;2022-12-18T09:40:00;11.37;;;7.83;;
5452;SDS011;2749;53.576;9.822;2022-12-18T09:42:25;13.97;;;10.93;;
5452;SDS011;2749;53.576;9.822;2022-12-18T09:44:52;12.30;;;7.73;;
5452;SDS011;2749;53.576;9.822;2022-12-18T09:47:23;14.15;;;9.05;;
5452;SDS011;2749;53.576;9.822;2022-12-18T09:49:50;11.48;;;8.25;;
5452;SDS011;2749;53.576;9.822;2022-12-18T09:52:22;12.90;;;9.40;;
5452;SDS011;2749;53.576;9.822;2022-12-18T09:54:59;13.68;;;7.95;;
5452;SDS011;2749;53.576;9.822;2022-12-18T09:57:26;16.95;;;9.35;;
5452;SDS011;2749;53.576;9.822;2022-12-18T09:59:56;13.50;;;8.43;;
5452;SDS011;2749;53.576;9.822;2022-12-18T10:02:24;10.32;;;7.90;;
5452;SDS011;2749;53.576;9.822;2022-12-18T10:05:04;11.50;;;8.00;;
5452;SDS011;2749;53.576;9.822;2022-12-18T10:07:37;15.55;;;8.77;;
5452;SDS011;2749;53.576;9.822;2022-12-18T10:10:19;15.33;;;8.60;;
5452;SDS011;2749;53.576;9.822;2022-12-18T10:12:51;8.37;;;6.63;;
5452;SDS011;2749;53.576;9.822;2022-12-18T10:17:58;13.83;;;7.57;;
5452;SDS011;2749;53.576;9.822;2022-12-18T10:23:02;8.45;;;7.55;;
5452;SDS011;2749;53.576;9.822;2022-12-18T10:25:41;12.80;;;8.77;;
5452;SDS011;2749;53.576;9.822;2022-12-18T10:28:12;10.07;;;7.57;;
5452;SDS011;2749;53.576;9.822;2022-12-18T10:30:39;10.87;;;7.97;;
5452;SDS011;2749;53.576;9.822;2022-12-18T10:33:05;9.97;;;7.67;;
5452;SDS011;2749;53.576;9.822;2022-12-18T10:35:31;11.60;;;7.77;;
5452;SDS011;2749;53.576;9.822;2022-12-18T10:38:02;8.90;;;7.80;;
5452;SDS011;2749;53.576;9.822;2022-12-18T10:40:28;11.87;;;8.03;;
5452;SDS011;2749;53.576;9.822;2022-12-18T10:43:02;8.73;;;6.40;;
5452;SDS011;2749;53.576;9.822;2022-12-18T10:45:29;12.43;;;7.37;;
5452;SDS011;2749;53.576;9.822;2022-12-18T10:47:54;9.50;;;7.10;;
5452;SDS011;2749;53.576;9.822;2022-12-18T10:50:28;12.80;;;6.20;;
5452;SDS011;2749;53.576;9.822;2022-12-18T10:52:55;8.53;;;7.33;;
5452;SDS011;2749;53.576;9.822;2022-12-18T10:55:22;9.20;;;7.13;;
5452;SDS011;2749;53.576;9.822;2022-12-18T10:57:50;10.80;;;7.27;;
5452;SDS011;2749;53.576;9.822;2022-12-18T11:00:27;7.90;;;7.10;;
5452;SDS011;2749;53.576;9.822;2022-12-18T11:02:54;9.47;;;7.77;;
5452;SDS011;2749;53.576;9.822;2022-12-18T11:05:30;10.87;;;7.10;;
5452;SDS011;2749;53.576;9.822;2022-12-18T11:07:57;8.70;;;6.53;;
5452;SDS011;2749;53.576;9.822;2022-12-18T11:10:33;7.47;;;6.33;;
5452;SDS011;2749;53.576;9.822;2022-12-18T11:13:09;12.20;;;7.05;;
5452;SDS011;2749;53.576;9.822;2022-12-18T11:15:35;7.23;;;6.27;;
5452;SDS011;2749;53.576;9.822;2022-12-18T11:18:01;8.13;;;6.43;;
5452;SDS011;2749;53.576;9.822;2022-12-18T11:20:30;9.70;;;6.43;;
5452;SDS011;2749;53.576;9.822;2022-12-18T11:22:58;9.60;;;6.73;;
5452;SDS011;2749;53.576;9.822;2022-12-18T11:25:24;10.80;;;7.07;;
5452;SDS011;2749;53.576;9.822;2022-12-18T11:28:01;11.97;;;8.13;;
5452;SDS011;2749;53.576;9.822;2022-12-18T11:30:28;7.83;;;6.03;;
5452;SDS011;2749;53.576;9.822;2022-12-18T11:33:15;10.10;;;7.00;;
5452;SDS011;2749;53.576;9.822;2022-12-18T11:38:23;10.33;;;7.20;;
5452;SDS011;2749;53.576;9.822;2022-12-18T11:40:52;9.40;;;6.57;;
5452;SDS011;2749;53.576;9.822;2022-12-18T11:43:23;8.63;;;7.20;;
5452;SDS011;2749;53.576;9.822;2022-12-18T11:45:52;7.57;;;6.60;;
5452;SDS011;2749;53.576;9.822;2022-12-18T11:53:11;9.70;;;6.80;;
5452;SDS011;2749;53.576;9.822;2022-12-18T12:00:36;12.50;;;6.70;;
5452;SDS011;2749;53.576;9.822;2022-12-18T12:10:51;12.67;;;7.40;;
5452;SDS011;2749;53.576;9.822;2022-12-18T12:18:28;11.63;;;8.10;;
5452;SDS011;2749;53.576;9.822;2022-12-18T12:21:15;11.57;;;8.30;;
5452;SDS011;2749;53.576;9.822;2022-12-18T12:26:35;14.23;;;7.10;;
5452;SDS011;2749;53.576;9.822;2022-12-18T12:29:09;12.37;;;8.63;;
5452;SDS011;2749;53.576;9.822;2022-12-18T12:34:24;11.60;;;8.30;;
5452;SDS011;2749;53.576;9.822;2022-12-18T12:36:56;12.50;;;7.77;;
5452;SDS011;2749;53.576;9.822;2022-12-18T12:39:27;12.27;;;8.27;;
5452;SDS011;2749;53.576;9.822;2022-12-18T12:41:54;11.43;;;8.63;;
5452;SDS011;2749;53.576;9.822;2022-12-18T12:44:42;10.97;;;8.80;;
5452;SDS011;2749;53.576;9.822;2022-12-18T12:47:12;11.60;;;7.70;;
5452;SDS011;2749;53.576;9.822;2022-12-18T12:49:39;12.43;;;8.23;;
5452;SDS011;2749;53.576;9.822;2022-12-18T12:52:07;12.77;;;8.87;;
5452;SDS011;2749;53.576;9.822;2022-12-18T12:54:36;14.60;;;9.30;;
5452;SDS011;2749;53.576;9.822;2022-12-18T12:57:06;10.33;;;8.27;;
5452;SDS011;2749;53.576;9.822;2022-12-18T12:59:41;15.33;;;10.00;;
5452;SDS011;2749;53.576;9.822;2022-12-18T13:07:15;13.13;;;9.87;;
5452;SDS011;2749;53.576;9.822;2022-12-18T13:12:28;10.87;;;8.50;;
5452;SDS011;2749;53.576;9.822;2022-12-18T13:15:19;12.23;;;8.20;;
5452;SDS011;2749;53.576;9.822;2022-12-18T13:17:46;10.73;;;8.37;;
5452;SDS011;2749;53.576;9.822;2022-12-18T13:20:13;16.20;;;10.00;;
5452;SDS011;2749;53.576;9.822;2022-12-18T13:22:44;10.63;;;8.10;;
5452;SDS011;2749;53.576;9.822;2022-12-18T13:28:13;14.77;;;9.97;;
5452;SDS011;2749;53.576;9.822;2022-12-18T13:45:48;14.37;;;9.57;;
5452;SDS011;2749;53.576;9.822;2022-12-18T13:48:19;15.93;;;10.07;;
5452;SDS011;2749;53.576;9.822;2022-12-18T13:51:04;13.70;;;10.60;;
5452;SDS011;2749;53.576;9.822;2022-12-18T13:53:36;13.93;;;9.90;;
5452;SDS011;2749;53.576;9.822;2022-12-18T13:56:03;17.23;;;11.90;;
5452;SDS011;2749;53.576;9.822;2022-12-18T13:58:30;22.63;;;13.07;;
5452;SDS011;2749;53.576;9.822;2022-12-18T14:00:56;18.53;;;11.47;;
5452;SDS011;2749;53.576;9.822;2022-12-18T14:03:25;18.45;;;12.00;;
5452;SDS011;2749;53.576;9.822;2022-12-18T14:05:52;20.13;;;10.80;;
5452;SDS011;2749;53.576;9.822;2022-12-18T14:08:18;15.30;;;10.97;;
5452;SDS011;2749;53.576;9.822;2022-12-18T14:10:45;20.80;;;12.63;;
5452;SDS011;2749;53.576;9.822;2022-12-18T14:13:15;20.80;;;12.37;;
5452;SDS011;2749;53.576;9.822;2022-12-18T14:15:44;23.40;;;12.97;;
5452;SDS011;2749;53.576;9.822;2022-12-18T14:20:39;17.70;;;12.00;;
5452;SDS011;2749;53.576;9.822;2022-12-18T14:23:24;16.33;;;11.00;;
5452;SDS011;2749;53.576;9.822;2022-12-18T14:25:50;18.33;;;11.17;;
5452;SDS011;2749;53.576;9.822;2022-12-18T14:28:16;19.40;;;11.33;;
5452;SDS011;2749;53.576;9.822;2022-12-18T14:30:43;19.92;;;12.90;;
5452;SDS011;2749;53.576;9.822;2022-12-18T14:35:37;21.33;;;11.60;;
5452;SDS011;2749;53.576;9.822;2022-12-18T14:40:51;23.40;;;11.32;;
5452;SDS011;2749;53.576;9.822;2022-12-18T14:43:17;19.33;;;13.82;;
5452;SDS011;2749;53.576;9.822;2022-12-18T14:45:43;25.40;;;15.30;;
5452;SDS011;2749;53.576;9.822;2022-12-18T14:48:14;18.93;;;12.47;;
5452;SDS011;2749;53.576;9.822;2022-12-18T14:50:41;23.73;;;14.65;;
5452;SDS011;2749;53.576;9.822;2022-12-18T14:53:17;24.20;;;12.55;;
5452;SDS011;2749;53.576;9.822;2022-12-18T14:55:45;18.90;;;13.87;;
5452;SDS011;2749;53.576;9.822;2022-12-18T14:58:12;24.70;;;14.80;;
5452;SDS011;2749;53.576;9.822;2022-12-18T15:00:40;27.23;;;13.77;;
5452;SDS011;2749;53.576;9.822;2022-12-18T15:03:07;21.60;;;13.27;;
5452;SDS011;2749;53.576;9.822;2022-12-18T15:05:34;26.15;;;15.23;;
5452;SDS011;2749;53.576;9.822;2022-12-18T15:08:00;31.15;;;13.07;;
5452;SDS011;2749;53.576;9.822;2022-12-18T15:20:44;26.80;;;15.88;;
5452;SDS011;2749;53.576;9.822;2022-12-18T15:25:40;29.73;;;15.85;;
5452;SDS011;2749;53.576;9.822;2022-12-18T15:28:17;26.08;;;16.58;;
5452;SDS011;2749;53.576;9.822;2022-12-18T15:30:57;28.93;;;15.70;;
5452;SDS011;2749;53.576;9.822;2022-12-18T15:33:25;27.30;;;15.55;;
5452;SDS011;2749;53.576;9.822;2022-12-18T15:35:58;21.40;;;13.85;;
5452;SDS011;2749;53.576;9.822;2022-12-18T15:38:24;24.00;;;15.83;;
5452;SDS011;2749;53.576;9.822;2022-12-18T15:40:50;25.77;;;14.57;;
5452;SDS011;2749;53.576;9.822;2022-12-18T15:43:16;23.87;;;16.83;;
5452;SDS011;2749;53.576;9.822;2022-12-18T15:46:05;29.00;;;16.73;;
5452;SDS011;2749;53.576;9.822;2022-12-18T15:48:34;27.47;;;16.60;;
5452;SDS011;2749;53.576;9.822;2022-12-18T15:51:01;40.47;;;17.30;;
5452;SDS011;2749;53.576;9.822;2022-12-18T15:53:31;29.00;;;15.93;;
5452;SDS011;2749;53.576;9.822;2022-12-18T15:55:58;33.55;;;18.50;;
5452;SDS011;2749;53.576;9.822;2022-12-18T15:58:43;27.23;;;16.70;;
5452;SDS011;2749;53.576;9.822;2022-12-18T16:01:09;23.20;;;15.03;;
5452;SDS011;2749;53.576;9.822;2022-12-18T16:03:36;26.83;;;15.20;;
5452;SDS011;2749;53.576;9.822;2022-12-18T16:06:02;30.40;;;17.23;;
5452;SDS011;2749;53.576;9.822;2022-12-18T16:08:28;29.43;;;15.70;;
5452;SDS011;2749;53.576;9.822;2022-12-18T16:10:55;24.67;;;15.07;;
5452;SDS011;2749;53.576;9.822;2022-12-18T16:13:21;26.13;;;15.70;;
5452;SDS011;2749;53.576;9.822;2022-12-18T16:15:47;33.43;;;17.10;;
5452;SDS011;2749;53.576;9.822;2022-12-18T16:18:13;30.60;;;16.70;;
5452;SDS011;2749;53.576;9.822;2022-12-18T16:20:39;24.97;;;14.30;;
5452;SDS011;2749;53.576;9.822;2022-12-18T16:23:05;24.93;;;16.27;;
5452;SDS011;2749;53.576;9.822;2022-12-18T16:25:31;30.17;;;16.80;;
5452;SDS011;2749;53.576;9.822;2022-12-18T16:27:57;35.23;;;18.37;;
5452;SDS011;2749;53.576;9.822;2022-12-18T16:30:25;26.33;;;16.20;;
5452;SDS011;2749;53.576;9.822;2022-12-18T16:32:53;30.75;;;16.40;;
5452;SDS011;2749;53.576;9.822;2022-12-18T16:35:19;22.20;;;14.55;;
5452;SDS011;2749;53.576;9.822;2022-12-18T16:37:45;26.70;;;16.20;;
5452;SDS011;2749;53.576;9.822;2022-12-18T16:40:12;22.90;;;15.10;;
5452;SDS011;2749;53.576;9.822;2022-12-18T16:42:38;24.75;;;16.85;;
5452;SDS011;2749;53.576;9.822;2022-12-18T16:45:05;23.30;;;15.93;;
5452;SDS011;2749;53.576;9.822;2022-12-18T16:47:31;29.07;;;16.70;;